sensor_id;sensor_type;location;lat;lon;timestamp;P1;durP1;ratioP1;P2;durP2;ratioP2
52776;SDS011;38656;54.260;20.822;2023-08-30T00:00:57;6.30;;;5.65;;
52776;SDS011;38656;54.260;20.822;2023-08-30T00:03:23;5.57;;;4.38;;
52776;SDS011;38656;54.260;20.822;2023-08-30T00:05:49;4.80;;;4.15;;
52776;SDS011;38656;54.260;20.822;2023-08-30T00:08:15;5.97;;;3.70;;
52776;SDS011;38656;54.260;20.822;2023-08-30T00:10:43;5.20;;;3.92;;
52776;SDS011;38656;54.260;20.822;2023-08-30T00:13:10;7.85;;;4.90;;
52776;SDS011;38656;54.260;20.822;2023-08-30T00:15:36;5.70;;;4.45;;
52776;SDS011;38656;54.260;20.822;2023-08-30T00:18:02;6.28;;;4.65;;
52776;SDS011;38656;54.260;20.822;2023-08-30T00:20:28;9.80;;;4.82;;
52776;SDS011;38656;54.260;20.822;2023-08-30T00:22:54;6.15;;;5.55;;
52776;SDS011;38656;54.260;20.822;2023-08-30T00:25:20;6.65;;;4.68;;
52776;SDS011;38656;54.260;20.822;2023-08-30T00:27:46;6.85;;;4.90;;
52776;SDS011;38656;54.260;20.822;2023-08-30T00:30:12;6.25;;;4.88;;
52776;SDS011;38656;54.260;20.822;2023-08-30T00:32:38;5.40;;;4.90;;
52776;SDS011;38656;54.260;20.822;2023-08-30T00:35:04;6.85;;;5.22;;
52776;SDS011;38656;54.260;20.822;2023-08-30T00:37:30;7.78;;;6.18;;
52776;SDS011;38656;54.260;20.822;2023-08-30T00:39:56;8.52;;;7.50;;
52776;SDS011;38656;54.260;20.822;2023-08-30T00:42:24;8.68;;;6.95;;
52776;SDS011;38656;54.260;20.822;2023-08-30T00:44:51;10.70;;;7.32;;
52776;SDS011;38656;54.260;20.822;2023-08-30T00:47:17;10.68;;;6.25;;
52776;SDS011;38656;54.260;20.822;2023-08-30T00:49:43;6.47;;;4.85;;
52776;SDS011;38656;54.260;20.822;2023-08-30T00:52:09;8.82;;;4.53;;
52776;SDS011;38656;54.260;20.822;2023-08-30T00:54:35;6.63;;;4.18;;
52776;SDS011;38656;54.260;20.822;2023-08-30T00:57:01;6.72;;;4.72;;
52776;SDS011;38656;54.260;20.822;2023-08-30T00:59:28;5.22;;;4.72;;
52776;SDS011;38656;54.260;20.822;2023-08-30T01:01:55;6.28;;;3.35;;
52776;SDS011;38656;54.260;20.822;2023-08-30T01:04:21;4.72;;;4.22;;
52776;SDS011;38656;54.260;20.822;2023-08-30T01:06:48;6.70;;;3.97;;
52776;SDS011;38656;54.260;20.822;2023-08-30T01:09:14;5.07;;;3.75;;
52776;SDS011;38656;54.260;20.822;2023-08-30T01:11:46;4.35;;;3.53;;
52776;SDS011;38656;54.260;20.822;2023-08-30T01:14:18;5.20;;;3.97;;
52776;SDS011;38656;54.260;20.822;2023-08-30T01:16:47;10.93;;;4.30;;
52776;SDS011;38656;54.260;20.822;2023-08-30T01:22:02;7.45;;;3.80;;
52776;SDS011;38656;54.260;20.822;2023-08-30T01:27:15;6.15;;;4.22;;
52776;SDS011;38656;54.260;20.822;2023-08-30T01:29:43;6.63;;;4.03;;
52776;SDS011;38656;54.260;20.822;2023-08-30T01:32:10;6.47;;;3.83;;
52776;SDS011;38656;54.260;20.822;2023-08-30T01:34:36;9.68;;;4.00;;
52776;SDS011;38656;54.260;20.822;2023-08-30T01:37:03;10.88;;;4.18;;
52776;SDS011;38656;54.260;20.822;2023-08-30T01:39:30;8.38;;;4.88;;
52776;SDS011;38656;54.260;20.822;2023-08-30T01:41:57;6.03;;;4.72;;
52776;SDS011;38656;54.260;20.822;2023-08-30T01:44:26;8.60;;;4.78;;
52776;SDS011;38656;54.260;20.822;2023-08-30T01:46:54;7.47;;;5.45;;
52776;SDS011;38656;54.260;20.822;2023-08-30T01:49:21;8.95;;;5.10;;
52776;SDS011;38656;54.260;20.822;2023-08-30T01:51:47;7.43;;;5.50;;
52776;SDS011;38656;54.260;20.822;2023-08-30T01:54:15;5.78;;;5.28;;
52776;SDS011;38656;54.260;20.822;2023-08-30T01:56:43;9.23;;;5.75;;
52776;SDS011;38656;54.260;20.822;2023-08-30T01:59:09;12.40;;;6.60;;
52776;SDS011;38656;54.260;20.822;2023-08-30T02:01:35;12.23;;;6.47;;
52776;SDS011;38656;54.260;20.822;2023-08-30T02:04:01;18.58;;;6.22;;
52776;SDS011;38656;54.260;20.822;2023-08-30T02:06:29;16.30;;;6.43;;
52776;SDS011;38656;54.260;20.822;2023-08-30T02:08:59;6.97;;;5.90;;
52776;SDS011;38656;54.260;20.822;2023-08-30T02:11:27;8.07;;;5.00;;
52776;SDS011;38656;54.260;20.822;2023-08-30T02:13:54;9.05;;;4.97;;
52776;SDS011;38656;54.260;20.822;2023-08-30T02:16:22;5.55;;;5.10;;
52776;SDS011;38656;54.260;20.822;2023-08-30T02:18:48;6.28;;;5.65;;
52776;SDS011;38656;54.260;20.822;2023-08-30T02:21:15;9.18;;;6.60;;
52776;SDS011;38656;54.260;20.822;2023-08-30T02:23:42;6.57;;;5.00;;
52776;SDS011;38656;54.260;20.822;2023-08-30T02:26:08;5.32;;;4.82;;
52776;SDS011;38656;54.260;20.822;2023-08-30T02:28:34;5.90;;;5.30;;
52776;SDS011;38656;54.260;20.822;2023-08-30T02:31:00;7.07;;;5.43;;
52776;SDS011;38656;54.260;20.822;2023-08-30T02:33:26;6.22;;;5.72;;
52776;SDS011;38656;54.260;20.822;2023-08-30T02:35:52;12.40;;;6.35;;
52776;SDS011;38656;54.260;20.822;2023-08-30T02:38:19;9.32;;;6.70;;
52776;SDS011;38656;54.260;20.822;2023-08-30T02:40:45;7.15;;;6.47;;
52776;SDS011;38656;54.260;20.822;2023-08-30T02:43:11;9.77;;;6.97;;
52776;SDS011;38656;54.260;20.822;2023-08-30T02:45:37;9.48;;;7.65;;
52776;SDS011;38656;54.260;20.822;2023-08-30T02:48:03;10.27;;;6.72;;
52776;SDS011;38656;54.260;20.822;2023-08-30T02:50:29;7.57;;;6.47;;
52776;SDS011;38656;54.260;20.822;2023-08-30T02:52:55;8.82;;;7.13;;
52776;SDS011;38656;54.260;20.822;2023-08-30T02:55:21;10.18;;;6.20;;
52776;SDS011;38656;54.260;20.822;2023-08-30T02:57:47;7.93;;;7.05;;
52776;SDS011;38656;54.260;20.822;2023-08-30T03:00:13;9.15;;;7.38;;
52776;SDS011;38656;54.260;20.822;2023-08-30T03:02:40;9.23;;;7.80;;
52776;SDS011;38656;54.260;20.822;2023-08-30T03:05:06;9.23;;;8.23;;
52776;SDS011;38656;54.260;20.822;2023-08-30T03:07:32;9.93;;;7.78;;
52776;SDS011;38656;54.260;20.822;2023-08-30T03:09:58;7.63;;;6.93;;
52776;SDS011;38656;54.260;20.822;2023-08-30T03:12:24;11.32;;;7.25;;
52776;SDS011;38656;54.260;20.822;2023-08-30T03:14:50;6.70;;;6.10;;
52776;SDS011;38656;54.260;20.822;2023-08-30T03:17:16;8.05;;;6.63;;
52776;SDS011;38656;54.260;20.822;2023-08-30T03:19:42;8.82;;;6.53;;
52776;SDS011;38656;54.260;20.822;2023-08-30T03:22:08;7.55;;;7.03;;
52776;SDS011;38656;54.260;20.822;2023-08-30T03:24:34;11.63;;;7.70;;
52776;SDS011;38656;54.260;20.822;2023-08-30T03:27:00;8.52;;;7.68;;
52776;SDS011;38656;54.260;20.822;2023-08-30T03:29:26;9.40;;;8.23;;
52776;SDS011;38656;54.260;20.822;2023-08-30T03:31:52;7.03;;;6.43;;
52776;SDS011;38656;54.260;20.822;2023-08-30T03:34:18;7.80;;;7.10;;
52776;SDS011;38656;54.260;20.822;2023-08-30T03:36:44;10.23;;;6.60;;
52776;SDS011;38656;54.260;20.822;2023-08-30T03:39:15;7.72;;;6.97;;
52776;SDS011;38656;54.260;20.822;2023-08-30T03:41:41;8.13;;;6.60;;
52776;SDS011;38656;54.260;20.822;2023-08-30T03:44:08;6.65;;;5.95;;
52776;SDS011;38656;54.260;20.822;2023-08-30T03:46:34;6.32;;;5.78;;
52776;SDS011;38656;54.260;20.822;2023-08-30T03:49:00;6.57;;;5.82;;
52776;SDS011;38656;54.260;20.822;2023-08-30T03:51:26;8.95;;;6.57;;
52776;SDS011;38656;54.260;20.822;2023-08-30T03:53:52;12.77;;;6.32;;
52776;SDS011;38656;54.260;20.822;2023-08-30T03:56:18;10.85;;;7.00;;
52776;SDS011;38656;54.260;20.822;2023-08-30T03:58:44;7.22;;;6.50;;
52776;SDS011;38656;54.260;20.822;2023-08-30T04:01:10;9.93;;;6.10;;
52776;SDS011;38656;54.260;20.822;2023-08-30T04:03:36;8.75;;;7.88;;
52776;SDS011;38656;54.260;20.822;2023-08-30T04:06:02;7.97;;;6.50;;
52776;SDS011;38656;54.260;20.822;2023-08-30T04:08:28;8.60;;;7.38;;
52776;SDS011;38656;54.260;20.822;2023-08-30T04:10:54;11.38;;;9.02;;
52776;SDS011;38656;54.260;20.822;2023-08-30T04:13:20;9.55;;;8.52;;
52776;SDS011;38656;54.260;20.822;2023-08-30T04:15:47;10.95;;;9.73;;
52776;SDS011;38656;54.260;20.822;2023-08-30T04:18:13;14.52;;;11.63;;
52776;SDS011;38656;54.260;20.822;2023-08-30T04:20:43;13.35;;;11.23;;
52776;SDS011;38656;54.260;20.822;2023-08-30T04:23:09;13.80;;;11.63;;
52776;SDS011;38656;54.260;20.822;2023-08-30T04:25:35;12.60;;;11.25;;
52776;SDS011;38656;54.260;20.822;2023-08-30T04:28:01;18.10;;;13.02;;
52776;SDS011;38656;54.260;20.822;2023-08-30T04:30:27;15.43;;;13.77;;
52776;SDS011;38656;54.260;20.822;2023-08-30T04:32:53;16.77;;;15.20;;
52776;SDS011;38656;54.260;20.822;2023-08-30T04:35:19;17.90;;;14.60;;
52776;SDS011;38656;54.260;20.822;2023-08-30T04:37:45;17.27;;;15.48;;
52776;SDS011;38656;54.260;20.822;2023-08-30T04:40:12;20.25;;;18.17;;
52776;SDS011;38656;54.260;20.822;2023-08-30T04:42:39;24.17;;;16.83;;
52776;SDS011;38656;54.260;20.822;2023-08-30T04:45:05;25.73;;;18.77;;
52776;SDS011;38656;54.260;20.822;2023-08-30T04:47:32;25.70;;;19.30;;
52776;SDS011;38656;54.260;20.822;2023-08-30T04:49:58;21.65;;;19.38;;
52776;SDS011;38656;54.260;20.822;2023-08-30T04:52:24;23.83;;;20.25;;
52776;SDS011;38656;54.260;20.822;2023-08-30T04:54:51;24.02;;;19.38;;
52776;SDS011;38656;54.260;20.822;2023-08-30T04:57:17;28.70;;;21.42;;
52776;SDS011;38656;54.260;20.822;2023-08-30T04:59:44;22.60;;;19.80;;
52776;SDS011;38656;54.260;20.822;2023-08-30T05:02:10;30.33;;;20.90;;
52776;SDS011;38656;54.260;20.822;2023-08-30T05:04:36;27.95;;;20.30;;
52776;SDS011;38656;54.260;20.822;2023-08-30T05:07:03;27.50;;;19.80;;
52776;SDS011;38656;54.260;20.822;2023-08-30T05:09:32;26.33;;;19.90;;
52776;SDS011;38656;54.260;20.822;2023-08-30T05:11:59;23.90;;;20.55;;
52776;SDS011;38656;54.260;20.822;2023-08-30T05:14:25;21.48;;;19.20;;
52776;SDS011;38656;54.260;20.822;2023-08-30T05:16:52;26.75;;;18.25;;
52776;SDS011;38656;54.260;20.822;2023-08-30T05:19:18;21.88;;;18.65;;
52776;SDS011;38656;54.260;20.822;2023-08-30T05:21:44;20.90;;;18.70;;
52776;SDS011;38656;54.260;20.822;2023-08-30T05:24:10;19.90;;;16.92;;
52776;SDS011;38656;54.260;20.822;2023-08-30T05:26:36;22.48;;;18.15;;
52776;SDS011;38656;54.260;20.822;2023-08-30T05:29:03;24.88;;;17.40;;
52776;SDS011;38656;54.260;20.822;2023-08-30T05:31:29;20.50;;;18.08;;
52776;SDS011;38656;54.260;20.822;2023-08-30T05:33:55;20.30;;;17.92;;
52776;SDS011;38656;54.260;20.822;2023-08-30T05:36:21;20.17;;;17.45;;
52776;SDS011;38656;54.260;20.822;2023-08-30T05:38:47;18.58;;;16.65;;
52776;SDS011;38656;54.260;20.822;2023-08-30T05:41:13;20.10;;;16.15;;
52776;SDS011;38656;54.260;20.822;2023-08-30T05:43:39;18.65;;;16.95;;
52776;SDS011;38656;54.260;20.822;2023-08-30T05:46:05;17.10;;;15.27;;
52776;SDS011;38656;54.260;20.822;2023-08-30T05:48:37;17.48;;;15.20;;
52776;SDS011;38656;54.260;20.822;2023-08-30T05:51:03;17.17;;;14.82;;
52776;SDS011;38656;54.260;20.822;2023-08-30T05:53:29;15.98;;;13.80;;
52776;SDS011;38656;54.260;20.822;2023-08-30T05:55:55;17.90;;;14.05;;
52776;SDS011;38656;54.260;20.822;2023-08-30T05:58:21;15.90;;;14.38;;
52776;SDS011;38656;54.260;20.822;2023-08-30T06:00:47;17.23;;;15.57;;
52776;SDS011;38656;54.260;20.822;2023-08-30T06:03:13;15.73;;;14.18;;
52776;SDS011;38656;54.260;20.822;2023-08-30T06:05:39;16.35;;;14.68;;
52776;SDS011;38656;54.260;20.822;2023-08-30T06:08:05;16.67;;;13.68;;
52776;SDS011;38656;54.260;20.822;2023-08-30T06:10:33;14.88;;;13.13;;
52776;SDS011;38656;54.260;20.822;2023-08-30T06:12:59;13.18;;;11.85;;
52776;SDS011;38656;54.260;20.822;2023-08-30T06:15:25;14.52;;;13.02;;
52776;SDS011;38656;54.260;20.822;2023-08-30T06:17:51;18.23;;;13.75;;
52776;SDS011;38656;54.260;20.822;2023-08-30T06:20:17;16.55;;;13.55;;
52776;SDS011;38656;54.260;20.822;2023-08-30T06:22:43;16.88;;;13.13;;
52776;SDS011;38656;54.260;20.822;2023-08-30T06:25:09;14.80;;;13.35;;
52776;SDS011;38656;54.260;20.822;2023-08-30T06:27:41;28.33;;;13.93;;
52776;SDS011;38656;54.260;20.822;2023-08-30T06:30:08;13.88;;;12.32;;
52776;SDS011;38656;54.260;20.822;2023-08-30T06:32:34;15.32;;;13.82;;
52776;SDS011;38656;54.260;20.822;2023-08-30T06:35:00;14.27;;;12.50;;
52776;SDS011;38656;54.260;20.822;2023-08-30T06:37:27;14.63;;;13.13;;
52776;SDS011;38656;54.260;20.822;2023-08-30T06:39:53;15.23;;;13.73;;
52776;SDS011;38656;54.260;20.822;2023-08-30T06:42:19;13.95;;;12.55;;
52776;SDS011;38656;54.260;20.822;2023-08-30T06:44:45;13.73;;;12.45;;
52776;SDS011;38656;54.260;20.822;2023-08-30T06:47:11;13.70;;;12.20;;
52776;SDS011;38656;54.260;20.822;2023-08-30T06:49:37;13.55;;;12.23;;
52776;SDS011;38656;54.260;20.822;2023-08-30T06:52:03;13.50;;;12.23;;
52776;SDS011;38656;54.260;20.822;2023-08-30T06:54:33;15.68;;;13.32;;
52776;SDS011;38656;54.260;20.822;2023-08-30T06:57:00;14.68;;;13.18;;
52776;SDS011;38656;54.260;20.822;2023-08-30T06:59:27;15.38;;;13.95;;
52776;SDS011;38656;54.260;20.822;2023-08-30T07:01:53;16.35;;;14.68;;
52776;SDS011;38656;54.260;20.822;2023-08-30T07:04:19;14.55;;;13.13;;
52776;SDS011;38656;54.260;20.822;2023-08-30T07:06:45;15.18;;;13.68;;
52776;SDS011;38656;54.260;20.822;2023-08-30T07:09:11;14.15;;;12.85;;
52776;SDS011;38656;54.260;20.822;2023-08-30T07:11:38;21.00;;;14.48;;
52776;SDS011;38656;54.260;20.822;2023-08-30T07:14:04;13.43;;;12.18;;
52776;SDS011;38656;54.260;20.822;2023-08-30T07:16:30;14.88;;;13.40;;
52776;SDS011;38656;54.260;20.822;2023-08-30T07:18:57;17.65;;;13.00;;
52776;SDS011;38656;54.260;20.822;2023-08-30T07:21:23;13.98;;;12.55;;
52776;SDS011;38656;54.260;20.822;2023-08-30T07:23:49;13.27;;;11.95;;
52776;SDS011;38656;54.260;20.822;2023-08-30T07:26:15;13.77;;;12.32;;
52776;SDS011;38656;54.260;20.822;2023-08-30T07:28:42;10.65;;;9.57;;
52776;SDS011;38656;54.260;20.822;2023-08-30T07:31:08;12.55;;;11.40;;
52776;SDS011;38656;54.260;20.822;2023-08-30T07:33:35;11.38;;;10.27;;
52776;SDS011;38656;54.260;20.822;2023-08-30T07:36:01;10.30;;;9.20;;
52776;SDS011;38656;54.260;20.822;2023-08-30T07:38:28;12.27;;;11.00;;
52776;SDS011;38656;54.260;20.822;2023-08-30T07:40:54;11.73;;;10.50;;
52776;SDS011;38656;54.260;20.822;2023-08-30T07:43:20;10.35;;;9.25;;
52776;SDS011;38656;54.260;20.822;2023-08-30T07:45:46;11.05;;;10.02;;
52776;SDS011;38656;54.260;20.822;2023-08-30T07:48:12;10.93;;;9.85;;
52776;SDS011;38656;54.260;20.822;2023-08-30T07:50:38;10.55;;;9.63;;
52776;SDS011;38656;54.260;20.822;2023-08-30T07:53:04;11.93;;;10.93;;
52776;SDS011;38656;54.260;20.822;2023-08-30T07:55:30;10.98;;;9.95;;
52776;SDS011;38656;54.260;20.822;2023-08-30T07:57:56;11.43;;;10.43;;
52776;SDS011;38656;54.260;20.822;2023-08-30T08:00:22;10.52;;;9.52;;
52776;SDS011;38656;54.260;20.822;2023-08-30T08:02:48;10.40;;;9.32;;
52776;SDS011;38656;54.260;20.822;2023-08-30T08:05:14;11.52;;;8.23;;
52776;SDS011;38656;54.260;20.822;2023-08-30T08:07:41;13.02;;;8.32;;
52776;SDS011;38656;54.260;20.822;2023-08-30T08:10:08;15.00;;;8.70;;
52776;SDS011;38656;54.260;20.822;2023-08-30T08:12:34;8.80;;;7.95;;
52776;SDS011;38656;54.260;20.822;2023-08-30T08:15:01;10.00;;;9.00;;
52776;SDS011;38656;54.260;20.822;2023-08-30T08:17:27;15.38;;;9.35;;
52776;SDS011;38656;54.260;20.822;2023-08-30T08:19:53;11.93;;;10.93;;
52776;SDS011;38656;54.260;20.822;2023-08-30T08:22:19;16.92;;;11.20;;
52776;SDS011;38656;54.260;20.822;2023-08-30T08:24:45;15.05;;;11.32;;
52776;SDS011;38656;54.260;20.822;2023-08-30T08:27:11;11.70;;;10.32;;
52776;SDS011;38656;54.260;20.822;2023-08-30T08:29:38;10.00;;;9.13;;
52776;SDS011;38656;54.260;20.822;2023-08-30T08:32:04;10.00;;;9.15;;
52776;SDS011;38656;54.260;20.822;2023-08-30T08:34:30;9.77;;;8.98;;
52776;SDS011;38656;54.260;20.822;2023-08-30T08:36:59;10.38;;;9.30;;
52776;SDS011;38656;54.260;20.822;2023-08-30T08:39:25;13.10;;;10.63;;
52776;SDS011;38656;54.260;20.822;2023-08-30T08:41:51;11.48;;;10.27;;
52776;SDS011;38656;54.260;20.822;2023-08-30T08:44:18;12.82;;;11.07;;
52776;SDS011;38656;54.260;20.822;2023-08-30T08:46:44;12.45;;;11.35;;
52776;SDS011;38656;54.260;20.822;2023-08-30T08:49:12;12.57;;;11.30;;
52776;SDS011;38656;54.260;20.822;2023-08-30T08:51:39;12.02;;;10.93;;
52776;SDS011;38656;54.260;20.822;2023-08-30T08:54:05;12.32;;;11.15;;
52776;SDS011;38656;54.260;20.822;2023-08-30T08:56:34;11.60;;;10.43;;
52776;SDS011;38656;54.260;20.822;2023-08-30T08:59:00;12.05;;;10.93;;
52776;SDS011;38656;54.260;20.822;2023-08-30T09:01:26;11.05;;;10.07;;
52776;SDS011;38656;54.260;20.822;2023-08-30T09:03:53;10.65;;;9.73;;
52776;SDS011;38656;54.260;20.822;2023-08-30T09:06:19;10.48;;;9.48;;
52776;SDS011;38656;54.260;20.822;2023-08-30T09:08:46;21.02;;;11.55;;
52776;SDS011;38656;54.260;20.822;2023-08-30T09:11:12;11.77;;;10.68;;
52776;SDS011;38656;54.260;20.822;2023-08-30T09:13:38;14.25;;;10.48;;
52776;SDS011;38656;54.260;20.822;2023-08-30T09:16:13;11.75;;;9.85;;
52776;SDS011;38656;54.260;20.822;2023-08-30T09:18:43;15.27;;;10.73;;
52776;SDS011;38656;54.260;20.822;2023-08-30T09:21:09;11.02;;;9.93;;
52776;SDS011;38656;54.260;20.822;2023-08-30T09:23:35;12.73;;;9.32;;
52776;SDS011;38656;54.260;20.822;2023-08-30T09:26:02;12.13;;;9.23;;
52776;SDS011;38656;54.260;20.822;2023-08-30T09:28:28;10.30;;;9.38;;
52776;SDS011;38656;54.260;20.822;2023-08-30T09:30:57;10.90;;;9.90;;
52776;SDS011;38656;54.260;20.822;2023-08-30T09:33:31;9.90;;;8.93;;
52776;SDS011;38656;54.260;20.822;2023-08-30T09:35:57;11.55;;;10.52;;
52776;SDS011;38656;54.260;20.822;2023-08-30T09:38:24;10.57;;;9.63;;
52776;SDS011;38656;54.260;20.822;2023-08-30T09:40:50;14.95;;;10.02;;
52776;SDS011;38656;54.260;20.822;2023-08-30T09:43:20;11.18;;;9.10;;
52776;SDS011;38656;54.260;20.822;2023-08-30T09:45:47;9.68;;;8.68;;
52776;SDS011;38656;54.260;20.822;2023-08-30T09:48:13;9.85;;;8.95;;
52776;SDS011;38656;54.260;20.822;2023-08-30T09:50:39;20.20;;;8.30;;
52776;SDS011;38656;54.260;20.822;2023-08-30T09:53:08;9.13;;;8.00;;
52776;SDS011;38656;54.260;20.822;2023-08-30T09:55:37;9.65;;;8.15;;
52776;SDS011;38656;54.260;20.822;2023-08-30T09:58:04;12.60;;;8.73;;
52776;SDS011;38656;54.260;20.822;2023-08-30T10:00:33;11.38;;;7.47;;
52776;SDS011;38656;54.260;20.822;2023-08-30T10:02:59;8.73;;;7.55;;
52776;SDS011;38656;54.260;20.822;2023-08-30T10:05:26;9.60;;;7.60;;
52776;SDS011;38656;54.260;20.822;2023-08-30T10:07:53;12.23;;;7.20;;
52776;SDS011;38656;54.260;20.822;2023-08-30T10:10:20;7.97;;;7.28;;
52776;SDS011;38656;54.260;20.822;2023-08-30T10:12:46;7.97;;;7.22;;
52776;SDS011;38656;54.260;20.822;2023-08-30T10:15:12;8.93;;;7.68;;
52776;SDS011;38656;54.260;20.822;2023-08-30T10:17:40;11.60;;;7.55;;
52776;SDS011;38656;54.260;20.822;2023-08-30T10:20:07;8.82;;;7.93;;
52776;SDS011;38656;54.260;20.822;2023-08-30T10:22:36;8.85;;;7.95;;
52776;SDS011;38656;54.260;20.822;2023-08-30T10:25:04;8.73;;;7.82;;
52776;SDS011;38656;54.260;20.822;2023-08-30T10:27:31;8.60;;;7.75;;
52776;SDS011;38656;54.260;20.822;2023-08-30T10:29:59;8.23;;;7.45;;
52776;SDS011;38656;54.260;20.822;2023-08-30T10:32:25;9.02;;;8.15;;
52776;SDS011;38656;54.260;20.822;2023-08-30T10:34:51;10.23;;;8.85;;
52776;SDS011;38656;54.260;20.822;2023-08-30T10:37:23;8.70;;;8.00;;
52776;SDS011;38656;54.260;20.822;2023-08-30T10:39:49;9.65;;;8.70;;
52776;SDS011;38656;54.260;20.822;2023-08-30T10:42:16;8.98;;;8.18;;
52776;SDS011;38656;54.260;20.822;2023-08-30T10:47:18;10.27;;;9.07;;
52776;SDS011;38656;54.260;20.822;2023-08-30T10:49:46;10.30;;;8.18;;
52776;SDS011;38656;54.260;20.822;2023-08-30T10:52:12;9.43;;;8.57;;
52776;SDS011;38656;54.260;20.822;2023-08-30T10:54:38;12.38;;;7.72;;
52776;SDS011;38656;54.260;20.822;2023-08-30T10:57:04;9.23;;;8.32;;
52776;SDS011;38656;54.260;20.822;2023-08-30T10:59:30;8.48;;;7.70;;
52776;SDS011;38656;54.260;20.822;2023-08-30T11:01:56;9.85;;;7.70;;
52776;SDS011;38656;54.260;20.822;2023-08-30T11:04:26;9.35;;;8.45;;
52776;SDS011;38656;54.260;20.822;2023-08-30T11:06:52;10.00;;;9.05;;
52776;SDS011;38656;54.260;20.822;2023-08-30T11:09:21;9.55;;;8.75;;
52776;SDS011;38656;54.260;20.822;2023-08-30T11:11:48;9.75;;;8.90;;
52776;SDS011;38656;54.260;20.822;2023-08-30T11:14:15;10.27;;;9.30;;
52776;SDS011;38656;54.260;20.822;2023-08-30T11:16:41;10.93;;;9.85;;
52776;SDS011;38656;54.260;20.822;2023-08-30T11:19:08;15.05;;;12.50;;
52776;SDS011;38656;54.260;20.822;2023-08-30T11:21:35;14.85;;;13.35;;
52776;SDS011;38656;54.260;20.822;2023-08-30T11:24:03;12.13;;;10.93;;
52776;SDS011;38656;54.260;20.822;2023-08-30T11:26:29;10.60;;;9.65;;
52776;SDS011;38656;54.260;20.822;2023-08-30T11:28:55;10.45;;;9.20;;
52776;SDS011;38656;54.260;20.822;2023-08-30T11:31:21;11.45;;;10.35;;
52776;SDS011;38656;54.260;20.822;2023-08-30T11:33:54;12.38;;;11.27;;
52776;SDS011;38656;54.260;20.822;2023-08-30T11:36:26;15.10;;;13.32;;
52776;SDS011;38656;54.260;20.822;2023-08-30T11:38:52;17.42;;;15.73;;
52776;SDS011;38656;54.260;20.822;2023-08-30T11:41:22;19.55;;;17.48;;
52776;SDS011;38656;54.260;20.822;2023-08-30T11:43:48;16.83;;;15.27;;
52776;SDS011;38656;54.260;20.822;2023-08-30T11:46:14;19.13;;;17.30;;
52776;SDS011;38656;54.260;20.822;2023-08-30T11:48:40;19.83;;;17.70;;
52776;SDS011;38656;54.260;20.822;2023-08-30T11:51:07;20.13;;;18.02;;
52776;SDS011;38656;54.260;20.822;2023-08-30T11:53:33;22.83;;;20.60;;
52776;SDS011;38656;54.260;20.822;2023-08-30T11:56:00;22.65;;;20.60;;
52776;SDS011;38656;54.260;20.822;2023-08-30T11:58:26;27.80;;;24.20;;
52776;SDS011;38656;54.260;20.822;2023-08-30T12:00:53;27.58;;;24.63;;
52776;SDS011;38656;54.260;20.822;2023-08-30T12:03:20;35.47;;;25.08;;
52776;SDS011;38656;54.260;20.822;2023-08-30T12:05:46;28.88;;;25.27;;
52776;SDS011;38656;54.260;20.822;2023-08-30T12:08:26;29.70;;;25.88;;
52776;SDS011;38656;54.260;20.822;2023-08-30T12:10:52;27.08;;;24.27;;
52776;SDS011;38656;54.260;20.822;2023-08-30T12:13:28;30.17;;;25.83;;
52776;SDS011;38656;54.260;20.822;2023-08-30T12:15:55;29.73;;;26.60;;
52776;SDS011;38656;54.260;20.822;2023-08-30T12:18:22;30.92;;;26.15;;
52776;SDS011;38656;54.260;20.822;2023-08-30T12:20:58;27.45;;;24.65;;
52776;SDS011;38656;54.260;20.822;2023-08-30T12:23:28;29.15;;;26.00;;
52776;SDS011;38656;54.260;20.822;2023-08-30T12:28:26;29.85;;;26.15;;
52776;SDS011;38656;54.260;20.822;2023-08-30T12:30:53;27.33;;;24.52;;
52776;SDS011;38656;54.260;20.822;2023-08-30T12:33:19;27.83;;;25.05;;
52776;SDS011;38656;54.260;20.822;2023-08-30T12:35:45;27.27;;;24.40;;
52776;SDS011;38656;54.260;20.822;2023-08-30T12:38:11;26.80;;;24.17;;
52776;SDS011;38656;54.260;20.822;2023-08-30T12:40:37;25.88;;;23.35;;
52776;SDS011;38656;54.260;20.822;2023-08-30T12:43:04;22.85;;;20.27;;
52776;SDS011;38656;54.260;20.822;2023-08-30T12:45:30;23.40;;;21.02;;
52776;SDS011;38656;54.260;20.822;2023-08-30T12:47:56;24.27;;;21.35;;
52776;SDS011;38656;54.260;20.822;2023-08-30T12:50:23;19.30;;;17.45;;
52776;SDS011;38656;54.260;20.822;2023-08-30T12:52:49;19.63;;;17.77;;
52776;SDS011;38656;54.260;20.822;2023-08-30T12:55:15;18.55;;;16.85;;
52776;SDS011;38656;54.260;20.822;2023-08-30T12:57:44;19.10;;;17.10;;
52776;SDS011;38656;54.260;20.822;2023-08-30T13:00:13;18.58;;;16.83;;
52776;SDS011;38656;54.260;20.822;2023-08-30T13:02:39;15.82;;;14.43;;
52776;SDS011;38656;54.260;20.822;2023-08-30T13:05:05;16.50;;;14.85;;
52776;SDS011;38656;54.260;20.822;2023-08-30T13:07:31;17.27;;;15.63;;
52776;SDS011;38656;54.260;20.822;2023-08-30T13:09:57;16.63;;;14.90;;
52776;SDS011;38656;54.260;20.822;2023-08-30T13:12:23;16.50;;;14.88;;
52776;SDS011;38656;54.260;20.822;2023-08-30T13:14:49;15.30;;;14.00;;
52776;SDS011;38656;54.260;20.822;2023-08-30T13:17:15;13.18;;;11.90;;
52776;SDS011;38656;54.260;20.822;2023-08-30T13:19:42;13.50;;;12.23;;
52776;SDS011;38656;54.260;20.822;2023-08-30T13:22:09;16.80;;;10.40;;
52776;SDS011;38656;54.260;20.822;2023-08-30T13:24:35;11.55;;;10.45;;
52776;SDS011;38656;54.260;20.822;2023-08-30T13:27:01;10.68;;;9.68;;
52776;SDS011;38656;54.260;20.822;2023-08-30T13:29:27;10.40;;;9.60;;
52776;SDS011;38656;54.260;20.822;2023-08-30T13:31:54;8.60;;;7.97;;
52776;SDS011;38656;54.260;20.822;2023-08-30T13:34:20;9.07;;;8.27;;
52776;SDS011;38656;54.260;20.822;2023-08-30T13:36:46;9.68;;;8.50;;
52776;SDS011;38656;54.260;20.822;2023-08-30T13:39:12;10.85;;;8.55;;
52776;SDS011;38656;54.260;20.822;2023-08-30T13:41:38;10.80;;;9.80;;
52776;SDS011;38656;54.260;20.822;2023-08-30T13:44:04;11.25;;;10.25;;
52776;SDS011;38656;54.260;20.822;2023-08-30T13:46:30;11.25;;;10.20;;
52776;SDS011;38656;54.260;20.822;2023-08-30T13:48:56;12.90;;;11.60;;
52776;SDS011;38656;54.260;20.822;2023-08-30T13:51:23;11.05;;;9.98;;
52776;SDS011;38656;54.260;20.822;2023-08-30T13:53:49;11.38;;;10.38;;
52776;SDS011;38656;54.260;20.822;2023-08-30T13:56:15;14.55;;;10.15;;
52776;SDS011;38656;54.260;20.822;2023-08-30T13:58:41;11.27;;;10.18;;
52776;SDS011;38656;54.260;20.822;2023-08-30T14:01:08;12.10;;;10.90;;
52776;SDS011;38656;54.260;20.822;2023-08-30T14:03:34;13.10;;;11.80;;
52776;SDS011;38656;54.260;20.822;2023-08-30T14:06:00;13.48;;;11.73;;
52776;SDS011;38656;54.260;20.822;2023-08-30T14:08:26;15.63;;;12.18;;
52776;SDS011;38656;54.260;20.822;2023-08-30T14:10:52;14.38;;;13.07;;
52776;SDS011;38656;54.260;20.822;2023-08-30T14:13:19;14.80;;;13.25;;
52776;SDS011;38656;54.260;20.822;2023-08-30T14:15:45;13.75;;;12.30;;
52776;SDS011;38656;54.260;20.822;2023-08-30T14:18:11;14.98;;;13.52;;
52776;SDS011;38656;54.260;20.822;2023-08-30T14:20:37;13.35;;;12.20;;
52776;SDS011;38656;54.260;20.822;2023-08-30T14:23:03;13.05;;;11.95;;
52776;SDS011;38656;54.260;20.822;2023-08-30T14:25:29;12.27;;;11.18;;